Moravia, Iowa
Current Conditions -  °F | °C
As of 6:15 AM on Friday 24 Oct 2014 (Local Time) from KTVK Reporting Station
Haze Haze  
Wind Chill: 55°   Ceiling: 100
Heat Index: 55°   Visibility: 1mi
Dew Point: 55°   Wind: 7mph
Humidity: 100%   Direction: 200°SSW
Pressure: 30.05"   Gusts: NA
Location:  40.89°N, 92.82°W
Report Text: KTVK 241115Z AUTO 20006KT 1SM BR OVC001 13/13 A3005 RMK AO2
Loading
Personal Weather Stations






























Interactive Weather Map
Tropical Storm Tracking
New forecast layout! Learn more

10-Day Weather Forecast

Advertisements
Track Severe Weather on mobile